Time;durP1;ratioP1;P1;durP2;ratioP2;P2;SDS_P1;SDS_P2;PMS_P1;PMS_P2;Temp;Humidity;BMP_temperature;BMP_pressure;BME280_temperature;BME280_humidity;BME280_pressure;Samples;Min_cycle;Max_cycle;Signal;HPM_P1;HPM_P2
2022/12/20 00:01:22;;;;;;;13.48;2.55;;;;;;;;;;5051611;28;20497;-64
2022/12/20 00:03:50;;;;;;;14.90;2.33;;;;;;;;;;5051914;28;20045;-65
2022/12/20 00:06:17;;;;;;;13.20;2.13;;;;;;;;;;5051626;28;20053;-64
2022/12/20 00:08:44;;;;;;;12.73;2.08;;;;;;;;;;5051802;28;20037;-64
2022/12/20 00:11:10;;;;;;;12.90;1.85;;;;;;;;;;5051776;28;20415;-65
2022/12/20 00:13:37;;;;;;;11.40;1.90;;;;;;;;;;5051602;28;20055;-65
2022/12/20 00:16:05;;;;;;;18.05;2.65;;;;;;;;;;5051422;28;20045;-65
2022/12/20 00:18:31;;;;;;;19.95;2.80;;;;;;;;;;5051796;28;20173;-64
2022/12/20 00:20:58;;;;;;;16.52;3.05;;;;;;;;;;5051600;28;20049;-64
2022/12/20 00:23:25;;;;;;;26.02;4.05;;;;;;;;;;5051692;28;20049;-64
2022/12/20 00:25:51;;;;;;;22.58;3.97;;;;;;;;;;5051638;28;20037;-64
2022/12/20 00:28:17;;;;;;;23.23;3.80;;;;;;;;;;5051441;28;20049;-65
2022/12/20 00:30:45;;;;;;;23.55;3.65;;;;;;;;;;5051707;28;20053;-64
2022/12/20 00:33:11;;;;;;;19.17;3.67;;;;;;;;;;5051682;28;20045;-65
2022/12/20 00:35:40;;;;;;;16.70;2.67;;;;;;;;;;5051321;28;20052;-64
2022/12/20 00:38:07;;;;;;;15.68;2.35;;;;;;;;;;5051549;28;20057;-64
2022/12/20 00:40:33;;;;;;;10.20;2.50;;;;;;;;;;5051299;28;20045;-65
2022/12/20 00:42:59;;;;;;;11.45;2.05;;;;;;;;;;5051543;28;20067;-64
2022/12/20 00:45:26;;;;;;;16.38;2.67;;;;;;;;;;5051606;28;20052;-64
2022/12/20 00:47:52;;;;;;;10.93;2.17;;;;;;;;;;5051147;28;20068;-64
2022/12/20 00:50:19;;;;;;;8.27;1.42;;;;;;;;;;5051446;28;20064;-64
2022/12/20 00:52:45;;;;;;;7.57;1.30;;;;;;;;;;5051180;28;20045;-64
2022/12/20 00:55:11;;;;;;;4.70;0.80;;;;;;;;;;5051531;28;20049;-64
2022/12/20 00:57:38;;;;;;;4.93;1.02;;;;;;;;;;5051158;28;20045;-64
2022/12/20 01:00:04;;;;;;;6.22;1.10;;;;;;;;;;5050977;28;20488;-65
2022/12/20 01:02:31;;;;;;;11.27;1.50;;;;;;;;;;5051620;28;20347;-64
2022/12/20 01:04:58;;;;;;;7.20;1.73;;;;;;;;;;5051190;28;20045;-64
2022/12/20 01:07:24;;;;;;;16.02;2.40;;;;;;;;;;5047867;28;20056;-64
2022/12/20 01:09:51;;;;;;;13.77;2.20;;;;;;;;;;5049617;28;20485;-64
2022/12/20 01:12:17;;;;;;;19.23;3.22;;;;;;;;;;5053183;28;20511;-64
2022/12/20 01:14:44;;;;;;;18.50;3.25;;;;;;;;;;5054992;28;20067;-64
2022/12/20 01:17:10;;;;;;;17.90;2.92;;;;;;;;;;5054913;28;20064;-64
2022/12/20 01:19:37;;;;;;;18.67;2.90;;;;;;;;;;5054780;28;20053;-64
2022/12/20 01:22:03;;;;;;;21.05;3.55;;;;;;;;;;5054676;28;20057;-64
2022/12/20 01:24:29;;;;;;;16.33;2.95;;;;;;;;;;5054791;28;20072;-64
2022/12/20 01:26:56;;;;;;;13.30;2.65;;;;;;;;;;5054433;28;20059;-64
2022/12/20 01:29:22;;;;;;;20.13;2.72;;;;;;;;;;5054805;28;20155;-64
2022/12/20 01:31:49;;;;;;;17.05;2.90;;;;;;;;;;5054723;28;20393;-64
2022/12/20 01:34:15;;;;;;;11.68;2.88;;;;;;;;;;5054655;28;20071;-64
2022/12/20 01:36:41;;;;;;;13.23;2.22;;;;;;;;;;5054556;28;20053;-64
2022/12/20 01:39:12;;;;;;;12.93;2.95;;;;;;;;;;5054220;28;20378;-64
2022/12/20 01:41:39;;;;;;;18.02;3.20;;;;;;;;;;5054313;28;20055;-65
2022/12/20 01:44:25;;;;;;;15.25;3.45;;;;;;;;;;5054424;28;20060;-64
2022/12/20 01:46:53;;;;;;;22.35;3.97;;;;;;;;;;5054226;28;20057;-64
2022/12/20 01:49:34;;;;;;;27.13;4.43;;;;;;;;;;5054351;28;20055;-64
2022/12/20 01:52:05;;;;;;;32.00;5.95;;;;;;;;;;5054085;28;20488;-64
2022/12/20 01:54:47;;;;;;;29.45;4.85;;;;;;;;;;5054235;28;20132;-64
2022/12/20 01:57:28;;;;;;;26.52;5.75;;;;;;;;;;5054237;28;20078;-65
2022/12/20 01:59:55;;;;;;;21.60;4.15;;;;;;;;;;5054075;28;20063;-65
2022/12/20 02:02:22;;;;;;;19.27;3.95;;;;;;;;;;5053840;28;20046;-64
2022/12/20 02:04:48;;;;;;;21.85;4.00;;;;;;;;;;5053689;28;20049;-65
2022/12/20 02:07:17;;;;;;;19.70;3.85;;;;;;;;;;5053573;28;20059;-64
2022/12/20 02:09:44;;;;;;;16.23;3.17;;;;;;;;;;5053944;28;20056;-64
2022/12/20 02:12:11;;;;;;;16.30;2.97;;;;;;;;;;5053769;28;20139;-64
2022/12/20 02:14:53;;;;;;;13.23;2.78;;;;;;;;;;5053683;28;20075;-64
2022/12/20 02:17:43;;;;;;;11.88;2.40;;;;;;;;;;5053627;28;20147;-64
2022/12/20 02:20:12;;;;;;;8.95;1.40;;;;;;;;;;5053524;28;20488;-64
2022/12/20 02:22:42;;;;;;;14.73;2.20;;;;;;;;;;5053429;28;20132;-64
2022/12/20 02:25:09;;;;;;;8.02;1.38;;;;;;;;;;5053768;28;20045;-64
2022/12/20 02:27:44;;;;;;;6.72;1.10;;;;;;;;;;5053216;28;20469;-64
2022/12/20 02:30:13;;;;;;;10.18;1.48;;;;;;;;;;5053639;28;20057;-64
2022/12/20 02:32:43;;;;;;;5.03;1.08;;;;;;;;;;5052164;28;20408;-65
2022/12/20 02:35:11;;;;;;;5.93;0.93;;;;;;;;;;5053428;28;20044;-65
2022/12/20 02:37:45;;;;;;;6.95;1.30;;;;;;;;;;5053298;28;20074;-64
2022/12/20 02:40:13;;;;;;;3.10;0.65;;;;;;;;;;5053047;28;20063;-63
2022/12/20 02:42:39;;;;;;;7.18;0.90;;;;;;;;;;5053413;28;20124;-64
2022/12/20 02:45:16;;;;;;;7.07;1.30;;;;;;;;;;5053402;28;20045;-65
2022/12/20 02:47:43;;;;;;;0.43;0.10;;;;;;;;;;5053393;28;20134;-64
2022/12/20 02:50:10;;;;;;;1.17;0.15;;;;;;;;;;5053203;28;20055;-65
2022/12/20 02:52:37;;;;;;;1.40;0.00;;;;;;;;;;5052939;28;20122;-64
2022/12/20 02:55:04;;;;;;;0.10;0.10;;;;;;;;;;5052884;28;20282;-64
2022/12/20 02:57:41;;;;;;;0.00;0.00;;;;;;;;;;5053179;28;20056;-65
2022/12/20 03:00:11;;;;;;;0.30;0.10;;;;;;;;;;5052793;28;20055;-64
2022/12/20 03:05:24;;;;;;;0.00;0.00;;;;;;;;;;5052956;28;20045;-64
2022/12/20 03:07:51;;;;;;;;;;;;;;;;;;5053232;28;20420;-64
2022/12/20 03:10:17;;;;;;;0.38;0.03;;;;;;;;;;5052808;28;19924;-64
2022/12/20 03:12:44;;;;;;;0.15;0.10;;;;;;;;;;5052903;28;20055;-65
2022/12/20 03:15:10;;;;;;;1.00;0.10;;;;;;;;;;5052725;28;20095;-65
2022/12/20 03:17:36;;;;;;;0.45;0.00;;;;;;;;;;5052519;28;20061;-64
2022/12/20 03:20:05;;;;;;;0.55;0.00;;;;;;;;;;5052589;28;20052;-64
2022/12/20 03:22:32;;;;;;;0.55;0.10;;;;;;;;;;5051357;28;20419;-64
2022/12/20 03:24:59;;;;;;;0.75;0.05;;;;;;;;;;5052302;28;20539;-64
2022/12/20 03:27:27;;;;;;;0.95;0.10;;;;;;;;;;5052365;28;20419;-64
2022/12/20 03:29:53;;;;;;;1.27;0.10;;;;;;;;;;5052191;28;20613;-64
2022/12/20 03:32:20;;;;;;;3.05;0.17;;;;;;;;;;5052123;28;20128;-64
2022/12/20 03:34:47;;;;;;;1.70;0.10;;;;;;;;;;5051632;28;20056;-64
2022/12/20 03:37:13;;;;;;;1.83;0.20;;;;;;;;;;5052062;28;20554;-64
2022/12/20 03:39:40;;;;;;;1.40;0.10;;;;;;;;;;5052543;28;20124;-64
2022/12/20 03:42:07;;;;;;;2.22;0.20;;;;;;;;;;5051845;28;20555;-64
2022/12/20 03:44:33;;;;;;;1.88;0.20;;;;;;;;;;5052072;28;20053;-64
2022/12/20 03:46:59;;;;;;;2.17;0.30;;;;;;;;;;5050582;28;20060;-64
2022/12/20 03:49:26;;;;;;;2.22;0.20;;;;;;;;;;5051871;28;20049;-64
2022/12/20 03:51:52;;;;;;;1.83;0.30;;;;;;;;;;5052185;28;20049;-64
2022/12/20 03:54:19;;;;;;;0.63;0.30;;;;;;;;;;5051802;28;20055;-64
2022/12/20 03:56:45;;;;;;;3.25;0.40;;;;;;;;;;5051919;28;20079;-64
2022/12/20 03:59:11;;;;;;;1.15;0.40;;;;;;;;;;5051746;28;20057;-64
2022/12/20 04:01:38;;;;;;;1.42;0.40;;;;;;;;;;5051588;28;20049;-63
2022/12/20 04:04:04;;;;;;;1.92;0.30;;;;;;;;;;5051768;28;20092;-64
2022/12/20 04:06:31;;;;;;;3.20;0.30;;;;;;;;;;5051653;28;20045;-64
2022/12/20 04:08:57;;;;;;;1.45;0.40;;;;;;;;;;5051887;28;20049;-64
2022/12/20 04:11:23;;;;;;;1.00;0.20;;;;;;;;;;5051679;28;20060;-64
2022/12/20 04:13:51;;;;;;;1.75;0.20;;;;;;;;;;5051890;28;20063;-63
2022/12/20 04:16:18;;;;;;;1.10;0.40;;;;;;;;;;5051539;28;20049;-63
2022/12/20 04:18:45;;;;;;;1.98;0.30;;;;;;;;;;5051642;28;20049;-64
2022/12/20 04:21:12;;;;;;;1.25;0.20;;;;;;;;;;5051541;28;20048;-64
2022/12/20 04:23:39;;;;;;;1.20;0.20;;;;;;;;;;5052126;28;20049;-64
2022/12/20 04:26:06;;;;;;;1.10;0.20;;;;;;;;;;5051429;28;20589;-64
2022/12/20 04:28:33;;;;;;;1.20;0.38;;;;;;;;;;5051379;28;20049;-63
2022/12/20 04:30:59;;;;;;;2.17;0.30;;;;;;;;;;5051661;28;20044;-63
2022/12/20 04:33:26;;;;;;;1.88;0.10;;;;;;;;;;5051592;28;20053;-64
2022/12/20 04:35:53;;;;;;;1.10;0.30;;;;;;;;;;5051703;28;20055;-64
2022/12/20 04:38:20;;;;;;;0.77;0.20;;;;;;;;;;5051651;28;20168;-64
2022/12/20 04:40:48;;;;;;;2.00;0.37;;;;;;;;;;5051348;28;20041;-64
2022/12/20 04:43:15;;;;;;;1.75;0.43;;;;;;;;;;5051270;28;20512;-63
2022/12/20 04:45:43;;;;;;;2.90;0.57;;;;;;;;;;5051261;28;20047;-64
2022/12/20 04:48:09;;;;;;;2.05;0.20;;;;;;;;;;5055107;28;20477;-63
2022/12/20 04:50:56;;;;;;;1.23;0.20;;;;;;;;;;5055142;28;20497;-63
2022/12/20 04:56:08;;;;;;;2.72;0.20;;;;;;;;;;5055119;28;20566;-63
2022/12/20 04:58:34;;;;;;;2.90;0.45;;;;;;;;;;5055399;28;20052;-63
2022/12/20 05:01:01;;;;;;;3.60;0.80;;;;;;;;;;5055072;28;20045;-64
2022/12/20 05:03:27;;;;;;;3.20;0.57;;;;;;;;;;5055112;28;20131;-63
2022/12/20 05:05:53;;;;;;;3.80;0.82;;;;;;;;;;5055179;28;20174;-63
2022/12/20 05:08:20;;;;;;;5.65;1.40;;;;;;;;;;5054938;28;20536;-63
2022/12/20 05:10:47;;;;;;;3.60;1.05;;;;;;;;;;5055244;28;20059;-64
2022/12/20 05:13:13;;;;;;;12.63;1.35;;;;;;;;;;5054865;28;20081;-63
2022/12/20 05:15:41;;;;;;;8.00;2.15;;;;;;;;;;5054812;28;20059;-63
2022/12/20 05:18:07;;;;;;;8.23;1.70;;;;;;;;;;5054988;28;20049;-63
2022/12/20 05:20:33;;;;;;;7.53;1.38;;;;;;;;;;5054861;28;20055;-63
2022/12/20 05:26:16;;;;;;;7.60;1.38;;;;;;;;;;5072180;28;20049;-63
2022/12/20 05:28:43;;;;;;;5.10;1.05;;;;;;;;;;5072097;28;20056;-63
2022/12/20 05:31:10;;;;;;;9.80;1.83;;;;;;;;;;5051434;28;20398;-63
2022/12/20 05:33:36;;;;;;;7.78;1.02;;;;;;;;;;5054871;28;20455;-63
2022/12/20 05:36:03;;;;;;;11.23;1.42;;;;;;;;;;5054362;28;20053;-63
2022/12/20 05:38:29;;;;;;;5.57;1.30;;;;;;;;;;5054275;28;20048;-63
2022/12/20 05:40:55;;;;;;;5.53;1.17;;;;;;;;;;5054184;28;20045;-63
2022/12/20 05:43:22;;;;;;;7.68;1.10;;;;;;;;;;5054587;28;20056;-63
2022/12/20 05:45:50;;;;;;;7.72;1.05;;;;;;;;;;5054179;28;20404;-63
2022/12/20 05:48:17;;;;;;;8.95;1.10;;;;;;;;;;5054519;28;20056;-63
2022/12/20 05:50:44;;;;;;;8.43;1.27;;;;;;;;;;5054407;28;20048;-63
2022/12/20 05:53:11;;;;;;;7.10;0.85;;;;;;;;;;5054386;28;20413;-63
2022/12/20 05:55:42;;;;;;;7.78;1.50;;;;;;;;;;5054120;28;20415;-63
2022/12/20 05:58:12;;;;;;;4.32;1.17;;;;;;;;;;5053481;28;20045;-63
2022/12/20 06:00:39;;;;;;;6.97;1.13;;;;;;;;;;5054385;28;20052;-63
2022/12/20 06:03:06;;;;;;;8.95;1.92;;;;;;;;;;5054197;28;20071;-63
2022/12/20 06:05:32;;;;;;;9.77;1.40;;;;;;;;;;5053833;28;20061;-63
2022/12/20 06:07:59;;;;;;;8.98;1.85;;;;;;;;;;5054070;28;20469;-63
2022/12/20 06:10:25;;;;;;;5.40;1.10;;;;;;;;;;5053760;28;20510;-63
2022/12/20 06:12:51;;;;;;;10.48;1.30;;;;;;;;;;5053897;28;20135;-63
2022/12/20 06:15:18;;;;;;;9.68;1.40;;;;;;;;;;5053993;28;20045;-63
2022/12/20 06:17:44;;;;;;;6.95;1.58;;;;;;;;;;5053901;28;20048;-63
2022/12/20 06:20:11;;;;;;;10.63;2.00;;;;;;;;;;5053893;28;20382;-63
2022/12/20 06:22:37;;;;;;;11.82;2.20;;;;;;;;;;5053506;28;20084;-63
2022/12/20 06:25:04;;;;;;;11.93;2.88;;;;;;;;;;5053475;28;20420;-63
2022/12/20 06:27:30;;;;;;;8.05;2.25;;;;;;;;;;5053426;28;20052;-63
2022/12/20 06:29:57;;;;;;;12.43;2.50;;;;;;;;;;5053347;28;20493;-63
2022/12/20 06:32:23;;;;;;;10.20;2.08;;;;;;;;;;5053714;28;20386;-63
2022/12/20 06:34:50;;;;;;;9.27;2.22;;;;;;;;;;5053216;28;20059;-63
2022/12/20 06:37:16;;;;;;;11.38;2.28;;;;;;;;;;5053872;28;20053;-63
2022/12/20 06:39:43;;;;;;;7.30;2.03;;;;;;;;;;5053123;28;20136;-63
2022/12/20 06:42:09;;;;;;;8.43;1.80;;;;;;;;;;5053041;28;20049;-63
2022/12/20 06:44:35;;;;;;;11.80;1.73;;;;;;;;;;5053121;28;20049;-63
2022/12/20 06:47:02;;;;;;;8.00;1.75;;;;;;;;;;5052966;28;20049;-63
2022/12/20 06:49:29;;;;;;;11.32;2.40;;;;;;;;;;5053032;28;20055;-63
2022/12/20 06:51:55;;;;;;;13.93;2.53;;;;;;;;;;5052953;28;20052;-63
2022/12/20 06:54:22;;;;;;;10.77;2.60;;;;;;;;;;5053171;28;20044;-63
2022/12/20 06:56:48;;;;;;;13.95;3.25;;;;;;;;;;5053133;28;20079;-63
2022/12/20 06:59:14;;;;;;;11.70;2.88;;;;;;;;;;5052771;28;20052;-63
2022/12/20 07:01:41;;;;;;;11.20;2.53;;;;;;;;;;5052699;28;20048;-62
2022/12/20 07:04:07;;;;;;;9.93;2.80;;;;;;;;;;5052717;28;20049;-63
2022/12/20 07:06:33;;;;;;;14.60;2.78;;;;;;;;;;5053017;28;20052;-63
2022/12/20 07:09:01;;;;;;;13.15;3.00;;;;;;;;;;5052007;28;20049;-63
2022/12/20 07:11:27;;;;;;;12.13;2.42;;;;;;;;;;5052888;28;20132;-63
2022/12/20 07:13:55;;;;;;;9.77;2.10;;;;;;;;;;5052558;28;20048;-63
2022/12/20 07:16:21;;;;;;;10.68;2.78;;;;;;;;;;5052432;28;20501;-63
2022/12/20 07:18:49;;;;;;;10.07;2.15;;;;;;;;;;5052619;28;20562;-63
2022/12/20 07:21:16;;;;;;;9.13;2.60;;;;;;;;;;5052801;28;20084;-63
2022/12/20 07:23:42;;;;;;;9.97;2.70;;;;;;;;;;5052634;28;20048;-63
2022/12/20 07:26:10;;;;;;;9.55;2.78;;;;;;;;;;5052196;28;20753;-63
2022/12/20 07:28:37;;;;;;;9.45;3.03;;;;;;;;;;5050530;28;20059;-63
2022/12/20 07:31:03;;;;;;;14.75;3.42;;;;;;;;;;5039823;28;20037;-63
2022/12/20 07:33:30;;;;;;;12.88;3.05;;;;;;;;;;5043681;28;20057;-63
2022/12/20 07:36:04;;;;;;;14.38;3.40;;;;;;;;;;5032079;28;20139;-63
2022/12/20 07:38:31;;;;;;;13.00;2.58;;;;;;;;;;5031734;28;20050;-63
2022/12/20 07:40:57;;;;;;;13.20;2.92;;;;;;;;;;5038082;28;20041;-63
2022/12/20 07:43:24;;;;;;;12.13;3.35;;;;;;;;;;5050393;28;20088;-63
2022/12/20 07:45:55;;;;;;;12.30;3.53;;;;;;;;;;5031459;28;20133;-63
2022/12/20 07:48:22;;;;;;;11.95;3.30;;;;;;;;;;5046350;28;20075;-63
2022/12/20 07:50:53;;;;;;;17.40;3.35;;;;;;;;;;5051876;28;20527;-63
2022/12/20 07:53:20;;;;;;;17.88;3.83;;;;;;;;;;5052213;28;20128;-63
2022/12/20 07:55:47;;;;;;;14.88;3.00;;;;;;;;;;5045438;28;20081;-63
2022/12/20 07:58:16;;;;;;;15.52;3.03;;;;;;;;;;5031817;28;20049;-63
2022/12/20 08:00:42;;;;;;;14.90;3.33;;;;;;;;;;5044815;28;20088;-63
2022/12/20 08:03:13;;;;;;;16.90;3.13;;;;;;;;;;5033503;28;20045;-62
2022/12/20 08:05:42;;;;;;;15.05;3.33;;;;;;;;;;5039755;28;20041;-63
2022/12/20 08:08:08;;;;;;;18.50;3.28;;;;;;;;;;5036997;28;20041;-63
2022/12/20 08:10:35;;;;;;;11.35;2.70;;;;;;;;;;5049849;28;20049;-63
2022/12/20 08:13:03;;;;;;;14.27;3.72;;;;;;;;;;5047823;28;20041;-63
2022/12/20 08:15:29;;;;;;;15.43;2.83;;;;;;;;;;5051347;28;20057;-63
2022/12/20 08:17:56;;;;;;;15.07;2.65;;;;;;;;;;5051400;28;20052;-63
2022/12/20 08:20:22;;;;;;;10.43;2.95;;;;;;;;;;5051288;28;20049;-63
2022/12/20 08:22:49;;;;;;;14.60;3.70;;;;;;;;;;5037092;28;20120;-64
2022/12/20 08:25:15;;;;;;;14.15;2.95;;;;;;;;;;5035628;28;20059;-64
2022/12/20 08:27:42;;;;;;;14.50;3.10;;;;;;;;;;5030619;28;20056;-64
2022/12/20 08:30:09;;;;;;;17.00;2.67;;;;;;;;;;5030854;28;20037;-63
2022/12/20 08:32:36;;;;;;;21.58;3.33;;;;;;;;;;5030436;28;20057;-64
2022/12/20 08:35:03;;;;;;;13.07;2.80;;;;;;;;;;5030689;28;20046;-64
2022/12/20 08:37:30;;;;;;;16.27;2.42;;;;;;;;;;5029585;28;20099;-64
2022/12/20 08:39:56;;;;;;;11.65;2.67;;;;;;;;;;5030470;28;20053;-64
2022/12/20 08:42:22;;;;;;;13.43;3.03;;;;;;;;;;5048584;28;20128;-65
2022/12/20 08:44:50;;;;;;;8.85;2.58;;;;;;;;;;5050509;28;20060;-63
2022/12/20 08:47:16;;;;;;;14.27;3.38;;;;;;;;;;5050940;28;20045;-64
2022/12/20 08:49:42;;;;;;;12.13;3.40;;;;;;;;;;5051000;28;20128;-64
2022/12/20 08:52:13;;;;;;;10.85;3.15;;;;;;;;;;5050726;28;20068;-63
2022/12/20 08:54:39;;;;;;;12.25;3.55;;;;;;;;;;5050531;28;20055;-63
2022/12/20 08:57:05;;;;;;;17.83;3.83;;;;;;;;;;5050580;28;20057;-64
2022/12/20 08:59:32;;;;;;;19.38;3.17;;;;;;;;;;5050643;28;20049;-64
2022/12/20 09:01:58;;;;;;;13.00;2.70;;;;;;;;;;5050779;28;20055;-64
2022/12/20 09:04:25;;;;;;;10.23;3.10;;;;;;;;;;5039698;28;20064;-64
2022/12/20 09:06:51;;;;;;;9.80;2.53;;;;;;;;;;5050533;28;20049;-64
2022/12/20 09:09:18;;;;;;;9.77;2.80;;;;;;;;;;5050972;28;20114;-64
2022/12/20 09:11:44;;;;;;;12.00;3.67;;;;;;;;;;5050823;28;20412;-64
2022/12/20 09:14:10;;;;;;;6.85;3.13;;;;;;;;;;5050314;28;20393;-64
2022/12/20 09:16:37;;;;;;;10.93;3.40;;;;;;;;;;5050662;28;20132;-64
2022/12/20 09:19:04;;;;;;;10.25;3.03;;;;;;;;;;5050479;28;20106;-64
2022/12/20 09:21:32;;;;;;;6.50;2.10;;;;;;;;;;5050638;28;20053;-64
2022/12/20 09:23:59;;;;;;;9.73;2.67;;;;;;;;;;5050687;28;20128;-64
2022/12/20 09:26:25;;;;;;;7.18;1.95;;;;;;;;;;5050274;28;20741;-64
2022/12/20 09:28:51;;;;;;;7.22;1.90;;;;;;;;;;5050230;28;20049;-64
2022/12/20 09:31:20;;;;;;;10.50;1.90;;;;;;;;;;5050460;28;20045;-64
2022/12/20 09:33:46;;;;;;;5.32;1.60;;;;;;;;;;5053486;28;20152;-64
2022/12/20 09:36:14;;;;;;;7.95;1.63;;;;;;;;;;5052057;28;20049;-64
2022/12/20 09:38:40;;;;;;;;;;;;;;;;;;5054549;28;20123;-64
2022/12/20 09:41:14;;;;;;;7.60;1.55;;;;;;;;;;5053711;28;19935;-64
2022/12/20 09:43:48;;;;;;;9.45;1.70;;;;;;;;;;5054037;28;20051;-64
2022/12/20 09:46:15;;;;;;;11.20;1.98;;;;;;;;;;5054060;28;20064;-65
2022/12/20 09:48:41;;;;;;;7.00;1.30;;;;;;;;;;5053787;28;20107;-64
2022/12/20 09:51:46;;;;;;;9.20;1.70;;;;;;;;;;5039238;28;20370;-65
2022/12/20 09:54:28;;;;;;;10.48;1.40;;;;;;;;;;5051072;28;20073;-64
2022/12/20 09:56:57;;;;;;;7.70;1.17;;;;;;;;;;5050280;28;20056;-64
2022/12/20 09:59:24;;;;;;;5.10;1.50;;;;;;;;;;5039845;28;20052;-64
2022/12/20 10:01:50;;;;;;;8.43;1.60;;;;;;;;;;5039121;28;20060;-65
2022/12/20 10:04:20;;;;;;;11.13;1.58;;;;;;;;;;5053543;28;20534;-65
2022/12/20 10:06:55;;;;;;;11.45;1.92;;;;;;;;;;5050548;28;20087;-65
2022/12/20 10:09:28;;;;;;;9.27;1.80;;;;;;;;;;5052297;28;20045;-65
2022/12/20 10:11:55;;;;;;;8.30;1.55;;;;;;;;;;5038944;28;20568;-65
2022/12/20 10:14:31;;;;;;;13.77;2.03;;;;;;;;;;5050033;28;20577;-65
2022/12/20 10:17:00;;;;;;;7.47;2.08;;;;;;;;;;5052633;28;20059;-65
2022/12/20 10:19:45;;;;;;;12.77;2.42;;;;;;;;;;5053794;28;20057;-65
2022/12/20 10:22:31;;;;;;;14.30;2.47;;;;;;;;;;5053755;28;20048;-65
2022/12/20 10:25:06;;;;;;;15.00;2.53;;;;;;;;;;5051918;28;20041;-65
2022/12/20 10:27:36;;;;;;;12.30;2.28;;;;;;;;;;5053536;28;20472;-65
2022/12/20 10:30:22;;;;;;;8.95;1.75;;;;;;;;;;5053624;28;20127;-65
2022/12/20 10:32:50;;;;;;;8.80;1.60;;;;;;;;;;5053409;28;20514;-65
2022/12/20 10:35:16;;;;;;;10.82;2.97;;;;;;;;;;5053861;28;20052;-65
2022/12/20 10:37:57;;;;;;;7.63;1.73;;;;;;;;;;5053572;28;20049;-65
2022/12/20 10:40:35;;;;;;;8.60;2.03;;;;;;;;;;5053178;28;20488;-65
2022/12/20 10:43:22;;;;;;;11.57;2.40;;;;;;;;;;5053169;28;20049;-65
2022/12/20 10:45:56;;;;;;;10.43;2.78;;;;;;;;;;5053347;28;20045;-65
2022/12/20 10:48:25;;;;;;;11.95;2.20;;;;;;;;;;5053471;28;20136;-65
2022/12/20 10:51:03;;;;;;;10.88;1.95;;;;;;;;;;5053219;28;20053;-65
2022/12/20 10:53:30;;;;;;;11.52;2.40;;;;;;;;;;5053315;28;20074;-65
2022/12/20 10:56:26;;;;;;;10.13;2.00;;;;;;;;;;5052899;28;20052;-65
2022/12/20 10:59:00;;;;;;;9.32;2.35;;;;;;;;;;5047342;28;20056;-64
2022/12/20 11:01:30;;;;;;;9.65;2.30;;;;;;;;;;5052859;28;20135;-65
2022/12/20 11:03:58;;;;;;;11.50;2.20;;;;;;;;;;5052877;28;20133;-65
2022/12/20 11:06:27;;;;;;;12.27;2.80;;;;;;;;;;5046565;28;20132;-65
2022/12/20 11:09:11;;;;;;;13.77;2.38;;;;;;;;;;5045379;28;20049;-65
2022/12/20 11:11:37;;;;;;;9.50;3.03;;;;;;;;;;5052486;28;20127;-65
2022/12/20 11:17:17;;;;;;;9.38;2.17;;;;;;;;;;5052913;28;20059;-65
2022/12/20 11:19:43;;;;;;;9.50;2.40;;;;;;;;;;5052776;28;20132;-65
2022/12/20 11:22:10;;;;;;;11.15;2.28;;;;;;;;;;5052561;28;20049;-65
2022/12/20 11:25:15;;;;;;;10.70;2.63;;;;;;;;;;5052353;28;20485;-65
2022/12/20 11:27:48;;;;;;;13.65;2.85;;;;;;;;;;5049862;28;20061;-65
2022/12/20 11:30:22;;;;;;;11.90;2.38;;;;;;;;;;5049965;28;20133;-65
2022/12/20 11:32:54;;;;;;;13.07;2.60;;;;;;;;;;5039832;28;20092;-65
2022/12/20 11:35:29;;;;;;;8.10;2.55;;;;;;;;;;5038933;28;20140;-65
2022/12/20 11:38:01;;;;;;;10.10;2.45;;;;;;;;;;5051884;28;20063;-65
2022/12/20 11:40:46;;;;;;;11.32;2.53;;;;;;;;;;5050507;28;20053;-65
2022/12/20 11:43:45;;;;;;;13.63;3.20;;;;;;;;;;5031833;28;20046;-65
2022/12/20 11:46:37;;;;;;;14.38;3.25;;;;;;;;;;5036576;28;20045;-65
2022/12/20 11:49:16;;;;;;;10.73;2.80;;;;;;;;;;5037455;28;20048;-65
2022/12/20 11:51:49;;;;;;;13.70;2.60;;;;;;;;;;5033161;28;20084;-65
2022/12/20 11:54:25;;;;;;;10.15;2.63;;;;;;;;;;5049468;28;20106;-65
2022/12/20 11:56:55;;;;;;;14.00;3.10;;;;;;;;;;5036577;28;20071;-65
2022/12/20 11:59:21;;;;;;;12.27;3.05;;;;;;;;;;5029723;28;20052;-65
2022/12/20 12:01:55;;;;;;;13.80;2.88;;;;;;;;;;5037971;28;20048;-66
2022/12/20 12:04:24;;;;;;;12.50;3.25;;;;;;;;;;5039122;28;20053;-66
2022/12/20 12:06:55;;;;;;;15.38;2.70;;;;;;;;;;5037602;28;20437;-66
2022/12/20 12:09:45;;;;;;;12.27;2.83;;;;;;;;;;5051199;28;20060;-67
2022/12/20 12:12:16;;;;;;;14.57;2.83;;;;;;;;;;5041757;28;20481;-66
2022/12/20 12:14:54;;;;;;;9.02;2.45;;;;;;;;;;5045385;28;20045;-66
2022/12/20 12:17:25;;;;;;;13.45;3.13;;;;;;;;;;5051074;28;20503;-67
2022/12/20 12:19:52;;;;;;;11.23;2.67;;;;;;;;;;5050920;28;20510;-67
2022/12/20 12:22:27;;;;;;;9.18;2.38;;;;;;;;;;5044465;28;20069;-67
2022/12/20 12:24:56;;;;;;;11.68;2.90;;;;;;;;;;5028902;28;20282;-67
2022/12/20 12:27:24;;;;;;;12.02;2.75;;;;;;;;;;5042159;28;20543;-66
2022/12/20 12:29:53;;;;;;;12.93;3.55;;;;;;;;;;5050802;28;20080;-66
2022/12/20 12:32:24;;;;;;;13.75;2.80;;;;;;;;;;5051155;28;20048;-66
2022/12/20 12:34:54;;;;;;;11.45;2.95;;;;;;;;;;5050780;28;20496;-66
2022/12/20 12:37:32;;;;;;;13.02;3.10;;;;;;;;;;5045353;28;20049;-66
2022/12/20 12:40:17;;;;;;;11.70;3.08;;;;;;;;;;5034312;28;20559;-66
2022/12/20 12:43:01;;;;;;;13.50;3.03;;;;;;;;;;5030524;28;20077;-66
2022/12/20 12:45:34;;;;;;;12.15;2.90;;;;;;;;;;5050586;28;20140;-66
2022/12/20 12:48:10;;;;;;;14.07;3.00;;;;;;;;;;5050736;28;20492;-66
2022/12/20 12:50:47;;;;;;;12.75;3.28;;;;;;;;;;5050958;28;20080;-66
2022/12/20 12:53:13;;;;;;;;;;;;;;;;;;5050145;28;20052;-66
2022/12/20 12:55:47;;;;;;;13.38;2.88;;;;;;;;;;5030757;28;19925;-66
2022/12/20 12:58:23;;;;;;;11.73;2.88;;;;;;;;;;5047624;28;20128;-66
2022/12/20 13:00:53;;;;;;;12.30;3.00;;;;;;;;;;5050859;28;20079;-66
2022/12/20 13:03:42;;;;;;;13.85;2.72;;;;;;;;;;5050378;28;20099;-66
2022/12/20 13:06:24;;;;;;;15.57;3.22;;;;;;;;;;5048737;28;20079;-66
2022/12/20 13:08:59;;;;;;;13.40;3.17;;;;;;;;;;5048612;28;20053;-66
2022/12/20 13:11:29;;;;;;;14.23;3.33;;;;;;;;;;5052779;28;20460;-66
2022/12/20 13:14:11;;;;;;;18.10;3.88;;;;;;;;;;5052234;28;20071;-66
2022/12/20 13:16:40;;;;;;;13.23;3.40;;;;;;;;;;5054491;28;20052;-66
2022/12/20 13:19:26;;;;;;;12.52;3.17;;;;;;;;;;5054742;28;20056;-66
2022/12/20 13:22:16;;;;;;;15.25;3.42;;;;;;;;;;5054709;28;20064;-66
2022/12/20 13:24:49;;;;;;;11.60;3.15;;;;;;;;;;5054273;28;20077;-66
2022/12/20 13:27:15;;;;;;;14.48;3.10;;;;;;;;;;5054612;28;20059;-66
2022/12/20 13:29:53;;;;;;;14.97;3.30;;;;;;;;;;5054942;28;20069;-66
2022/12/20 13:32:39;;;;;;;14.85;3.00;;;;;;;;;;5054574;28;20053;-66
2022/12/20 13:35:28;;;;;;;12.88;2.90;;;;;;;;;;5054709;28;20051;-66
2022/12/20 13:37:56;;;;;;;12.43;2.78;;;;;;;;;;5054735;28;20136;-66
2022/12/20 13:40:31;;;;;;;14.05;3.05;;;;;;;;;;5054421;28;20049;-66
2022/12/20 13:43:01;;;;;;;14.15;3.40;;;;;;;;;;5054276;28;20140;-66
2022/12/20 13:45:27;;;;;;;14.45;3.00;;;;;;;;;;5054255;28;20412;-65
2022/12/20 13:48:00;;;;;;;13.15;3.03;;;;;;;;;;5053407;28;20476;-65
2022/12/20 13:50:39;;;;;;;20.77;3.20;;;;;;;;;;5054499;28;20045;-65
2022/12/20 13:53:13;;;;;;;11.88;2.75;;;;;;;;;;5054097;28;20081;-65
2022/12/20 13:55:41;;;;;;;15.80;3.10;;;;;;;;;;5054071;28;20480;-65
2022/12/20 13:58:19;;;;;;;15.30;2.90;;;;;;;;;;5054378;28;20052;-65
2022/12/20 14:00:47;;;;;;;15.82;4.03;;;;;;;;;;5053974;28;20492;-65
2022/12/20 14:03:18;;;;;;;15.68;3.28;;;;;;;;;;5053965;28;20403;-65
2022/12/20 14:05:44;;;;;;;16.95;3.20;;;;;;;;;;5053762;28;20049;-65
2022/12/20 14:08:16;;;;;;;19.77;3.67;;;;;;;;;;5054204;28;20049;-65
2022/12/20 14:10:42;;;;;;;18.95;3.63;;;;;;;;;;5053990;28;20113;-65
2022/12/20 14:13:18;;;;;;;20.48;3.42;;;;;;;;;;5054100;28;20048;-65
2022/12/20 14:15:45;;;;;;;18.55;3.10;;;;;;;;;;5053720;28;20534;-65
2022/12/20 14:18:24;;;;;;;18.77;3.35;;;;;;;;;;5053215;28;20055;-65
2022/12/20 14:20:58;;;;;;;19.40;3.17;;;;;;;;;;5053538;28;20088;-65
2022/12/20 14:23:35;;;;;;;15.60;3.78;;;;;;;;;;5053870;28;20132;-65
2022/12/20 14:26:02;;;;;;;14.73;3.90;;;;;;;;;;5053906;28;20049;-65
2022/12/20 14:28:29;;;;;;;14.75;3.03;;;;;;;;;;5053372;28;20045;-65
2022/12/20 14:30:57;;;;;;;23.63;3.55;;;;;;;;;;5053628;28;20103;-65
2022/12/20 14:33:37;;;;;;;17.83;3.95;;;;;;;;;;5053435;28;20059;-65
2022/12/20 14:36:07;;;;;;;13.15;3.35;;;;;;;;;;5053350;28;20048;-65
2022/12/20 14:38:33;;;;;;;19.40;4.43;;;;;;;;;;5053393;28;20223;-65
2022/12/20 14:41:00;;;;;;;14.13;2.92;;;;;;;;;;5053162;28;20560;-65
2022/12/20 14:43:36;;;;;;;12.57;2.83;;;;;;;;;;5053152;28;20076;-65
2022/12/20 14:49:51;;;;;;;14.57;3.20;;;;;;;;;;5053578;28;20507;-64
2022/12/20 14:52:37;;;;;;;15.80;3.10;;;;;;;;;;5053053;28;20045;-65
2022/12/20 14:55:07;;;;;;;17.02;3.30;;;;;;;;;;5053132;28;20053;-65
2022/12/20 14:57:35;;;;;;;14.35;2.42;;;;;;;;;;5052775;28;20858;-65
2022/12/20 15:00:12;;;;;;;19.02;3.53;;;;;;;;;;5052749;28;20468;-65
2022/12/20 15:02:38;;;;;;;22.10;3.58;;;;;;;;;;5052838;28;20416;-65
2022/12/20 15:05:23;;;;;;;21.98;3.03;;;;;;;;;;5047467;28;20132;-65
2022/12/20 15:07:50;;;;;;;22.80;3.15;;;;;;;;;;5038642;28;20053;-65